sensor_id;sensor_type;location;lat;lon;timestamp;temperature;humidity
2751;DHT22;1383;48.362;10.908;2022-10-16T00:01:11;14.80;86.90
2751;DHT22;1383;48.362;10.908;2022-10-16T00:03:40;14.80;87.20
2751;DHT22;1383;48.362;10.908;2022-10-16T00:06:08;14.80;87.60
2751;DHT22;1383;48.362;10.908;2022-10-16T00:08:35;14.80;87.80
2751;DHT22;1383;48.362;10.908;2022-10-16T00:13:33;14.70;87.50
2751;DHT22;1383;48.362;10.908;2022-10-16T00:16:00;14.70;88.00
2751;DHT22;1383;48.362;10.908;2022-10-16T00:18:28;14.80;88.10
2751;DHT22;1383;48.362;10.908;2022-10-16T00:20:55;14.80;87.50
2751;DHT22;1383;48.362;10.908;2022-10-16T00:23:22;14.70;87.10
2751;DHT22;1383;48.362;10.908;2022-10-16T00:26:01;14.70;86.40
2751;DHT22;1383;48.362;10.908;2022-10-16T00:28:29;14.70;86.00
2751;DHT22;1383;48.362;10.908;2022-10-16T00:30:56;14.70;86.40
2751;DHT22;1383;48.362;10.908;2022-10-16T00:33:23;14.70;86.30
2751;DHT22;1383;48.362;10.908;2022-10-16T00:35:50;14.80;86.20
2751;DHT22;1383;48.362;10.908;2022-10-16T00:38:17;14.70;85.90
2751;DHT22;1383;48.362;10.908;2022-10-16T00:40:44;14.70;86.40
2751;DHT22;1383;48.362;10.908;2022-10-16T00:43:33;14.80;86.10
2751;DHT22;1383;48.362;10.908;2022-10-16T00:46:02;14.70;85.20
2751;DHT22;1383;48.362;10.908;2022-10-16T00:48:29;14.60;85.70
2751;DHT22;1383;48.362;10.908;2022-10-16T00:50:57;14.70;86.30
2751;DHT22;1383;48.362;10.908;2022-10-16T00:53:25;14.70;86.70
2751;DHT22;1383;48.362;10.908;2022-10-16T00:55:52;14.70;86.20
2751;DHT22;1383;48.362;10.908;2022-10-16T00:58:20;14.70;86.20
2751;DHT22;1383;48.362;10.908;2022-10-16T01:00:47;14.70;85.80
2751;DHT22;1383;48.362;10.908;2022-10-16T01:03:26;14.70;85.70
2751;DHT22;1383;48.362;10.908;2022-10-16T01:14:11;14.60;87.00
2751;DHT22;1383;48.362;10.908;2022-10-16T01:16:49;14.50;87.60
2751;DHT22;1383;48.362;10.908;2022-10-16T01:21:53;14.60;87.70
2751;DHT22;1383;48.362;10.908;2022-10-16T01:24:43;14.50;87.70
2751;DHT22;1383;48.362;10.908;2022-10-16T01:29:54;14.60;87.60
2751;DHT22;1383;48.362;10.908;2022-10-16T01:32:30;14.60;87.70
2751;DHT22;1383;48.362;10.908;2022-10-16T01:35:18;14.60;88.20
2751;DHT22;1383;48.362;10.908;2022-10-16T01:38:52;14.50;87.90
2751;DHT22;1383;48.362;10.908;2022-10-16T01:40:52;14.50;88.20
2751;DHT22;1383;48.362;10.908;2022-10-16T01:43:31;14.50;88.60
2751;DHT22;1383;48.362;10.908;2022-10-16T01:46:00;14.60;88.20
2751;DHT22;1383;48.362;10.908;2022-10-16T01:48:29;14.50;87.80
2751;DHT22;1383;48.362;10.908;2022-10-16T01:51:07;14.50;88.00
2751;DHT22;1383;48.362;10.908;2022-10-16T01:53:36;14.50;87.90
2751;DHT22;1383;48.362;10.908;2022-10-16T01:56:06;14.40;87.60
2751;DHT22;1383;48.362;10.908;2022-10-16T01:58:36;14.30;88.20
2751;DHT22;1383;48.362;10.908;2022-10-16T02:01:04;14.30;88.80
2751;DHT22;1383;48.362;10.908;2022-10-16T02:03:34;14.30;88.80
2751;DHT22;1383;48.362;10.908;2022-10-16T02:06:02;14.20;89.20
2751;DHT22;1383;48.362;10.908;2022-10-16T02:08:30;14.20;89.60
2751;DHT22;1383;48.362;10.908;2022-10-16T02:10:58;14.20;90.10
2751;DHT22;1383;48.362;10.908;2022-10-16T02:13:31;14.20;90.00
2751;DHT22;1383;48.362;10.908;2022-10-16T02:15:59;14.20;90.20
2751;DHT22;1383;48.362;10.908;2022-10-16T02:18:26;14.20;90.10
2751;DHT22;1383;48.362;10.908;2022-10-16T02:21:00;14.20;90.10
2751;DHT22;1383;48.362;10.908;2022-10-16T02:23:35;14.20;89.60
2751;DHT22;1383;48.362;10.908;2022-10-16T02:26:06;14.20;89.20
2751;DHT22;1383;48.362;10.908;2022-10-16T02:28:48;14.20;89.30
2751;DHT22;1383;48.362;10.908;2022-10-16T02:31:26;14.20;89.10
2751;DHT22;1383;48.362;10.908;2022-10-16T02:33:57;14.20;89.00
2751;DHT22;1383;48.362;10.908;2022-10-16T02:36:26;14.30;89.30
2751;DHT22;1383;48.362;10.908;2022-10-16T02:38:53;14.30;89.00
2751;DHT22;1383;48.362;10.908;2022-10-16T02:41:22;14.30;89.20
2751;DHT22;1383;48.362;10.908;2022-10-16T02:43:50;14.30;89.70
2751;DHT22;1383;48.362;10.908;2022-10-16T02:46:17;14.30;89.70
2751;DHT22;1383;48.362;10.908;2022-10-16T02:48:44;14.40;89.30
2751;DHT22;1383;48.362;10.908;2022-10-16T02:51:11;14.40;88.30
2751;DHT22;1383;48.362;10.908;2022-10-16T02:53:38;14.40;88.10
2751;DHT22;1383;48.362;10.908;2022-10-16T02:56:05;14.40;87.20
2751;DHT22;1383;48.362;10.908;2022-10-16T02:58:32;14.40;87.40
2751;DHT22;1383;48.362;10.908;2022-10-16T03:00:58;14.50;86.80
2751;DHT22;1383;48.362;10.908;2022-10-16T03:03:25;14.50;86.60
2751;DHT22;1383;48.362;10.908;2022-10-16T03:05:52;14.50;86.80
2751;DHT22;1383;48.362;10.908;2022-10-16T03:08:19;14.50;86.40
2751;DHT22;1383;48.362;10.908;2022-10-16T03:10:50;14.50;86.20
2751;DHT22;1383;48.362;10.908;2022-10-16T03:13:17;14.50;86.60
2751;DHT22;1383;48.362;10.908;2022-10-16T03:15:47;14.50;86.50
2751;DHT22;1383;48.362;10.908;2022-10-16T03:18:13;14.50;86.20
2751;DHT22;1383;48.362;10.908;2022-10-16T03:20:41;14.50;86.80
2751;DHT22;1383;48.362;10.908;2022-10-16T03:23:08;14.50;86.10
2751;DHT22;1383;48.362;10.908;2022-10-16T03:25:35;14.50;86.20
2751;DHT22;1383;48.362;10.908;2022-10-16T03:28:02;14.50;85.90
2751;DHT22;1383;48.362;10.908;2022-10-16T03:30:29;14.60;85.60
2751;DHT22;1383;48.362;10.908;2022-10-16T03:32:56;14.60;85.60
2751;DHT22;1383;48.362;10.908;2022-10-16T03:35:23;14.60;85.40
2751;DHT22;1383;48.362;10.908;2022-10-16T03:37:50;14.60;85.10
2751;DHT22;1383;48.362;10.908;2022-10-16T03:40:17;14.60;85.10
2751;DHT22;1383;48.362;10.908;2022-10-16T03:42:44;14.70;85.10
2751;DHT22;1383;48.362;10.908;2022-10-16T03:45:11;14.70;84.50
2751;DHT22;1383;48.362;10.908;2022-10-16T03:47:38;14.70;84.20
2751;DHT22;1383;48.362;10.908;2022-10-16T03:50:05;14.50;83.50
2751;DHT22;1383;48.362;10.908;2022-10-16T03:52:32;14.30;84.90
2751;DHT22;1383;48.362;10.908;2022-10-16T03:54:59;14.30;86.90
2751;DHT22;1383;48.362;10.908;2022-10-16T03:57:26;14.40;87.10
2751;DHT22;1383;48.362;10.908;2022-10-16T03:59:54;14.40;87.10
2751;DHT22;1383;48.362;10.908;2022-10-16T04:02:20;14.40;87.00
2751;DHT22;1383;48.362;10.908;2022-10-16T04:04:47;14.30;86.90
2751;DHT22;1383;48.362;10.908;2022-10-16T04:07:14;14.30;87.60
2751;DHT22;1383;48.362;10.908;2022-10-16T04:09:41;14.40;87.90
2751;DHT22;1383;48.362;10.908;2022-10-16T04:12:08;14.40;87.50
2751;DHT22;1383;48.362;10.908;2022-10-16T04:14:35;14.40;87.70
2751;DHT22;1383;48.362;10.908;2022-10-16T04:17:02;14.50;86.90
2751;DHT22;1383;48.362;10.908;2022-10-16T04:19:28;14.50;86.70
2751;DHT22;1383;48.362;10.908;2022-10-16T04:21:55;14.50;86.60
2751;DHT22;1383;48.362;10.908;2022-10-16T04:24:22;14.50;85.90
2751;DHT22;1383;48.362;10.908;2022-10-16T04:26:49;14.50;86.50
2751;DHT22;1383;48.362;10.908;2022-10-16T04:29:15;14.50;86.80
2751;DHT22;1383;48.362;10.908;2022-10-16T04:31:42;14.50;86.20
2751;DHT22;1383;48.362;10.908;2022-10-16T04:34:09;14.50;85.10
2751;DHT22;1383;48.362;10.908;2022-10-16T04:36:36;14.30;86.10
2751;DHT22;1383;48.362;10.908;2022-10-16T04:39:03;14.30;86.70
2751;DHT22;1383;48.362;10.908;2022-10-16T04:41:29;14.30;87.10
2751;DHT22;1383;48.362;10.908;2022-10-16T04:43:56;14.20;88.00
2751;DHT22;1383;48.362;10.908;2022-10-16T04:46:23;14.30;88.70
2751;DHT22;1383;48.362;10.908;2022-10-16T04:48:50;14.30;88.30
2751;DHT22;1383;48.362;10.908;2022-10-16T04:51:17;14.20;88.20
2751;DHT22;1383;48.362;10.908;2022-10-16T04:53:45;14.20;87.90
2751;DHT22;1383;48.362;10.908;2022-10-16T04:56:12;14.20;88.20
2751;DHT22;1383;48.362;10.908;2022-10-16T04:58:38;14.20;88.20
2751;DHT22;1383;48.362;10.908;2022-10-16T05:01:05;14.20;88.10
2751;DHT22;1383;48.362;10.908;2022-10-16T05:03:32;14.10;88.50
2751;DHT22;1383;48.362;10.908;2022-10-16T05:05:59;14.10;88.90
2751;DHT22;1383;48.362;10.908;2022-10-16T05:08:26;14.00;88.70
2751;DHT22;1383;48.362;10.908;2022-10-16T05:10:52;13.90;89.50
2751;DHT22;1383;48.362;10.908;2022-10-16T05:13:19;13.90;90.20
2751;DHT22;1383;48.362;10.908;2022-10-16T05:15:49;13.90;90.20
2751;DHT22;1383;48.362;10.908;2022-10-16T05:18:16;13.80;90.40
2751;DHT22;1383;48.362;10.908;2022-10-16T05:20:43;13.80;90.50
2751;DHT22;1383;48.362;10.908;2022-10-16T05:23:10;13.80;90.50
2751;DHT22;1383;48.362;10.908;2022-10-16T05:25:42;13.80;90.60
2751;DHT22;1383;48.362;10.908;2022-10-16T05:28:08;13.70;90.60
2751;DHT22;1383;48.362;10.908;2022-10-16T05:30:37;13.70;90.90
2751;DHT22;1383;48.362;10.908;2022-10-16T05:33:04;13.60;91.00
2751;DHT22;1383;48.362;10.908;2022-10-16T05:35:30;13.60;91.20
2751;DHT22;1383;48.362;10.908;2022-10-16T05:37:57;13.60;91.10
2751;DHT22;1383;48.362;10.908;2022-10-16T05:40:24;13.60;91.30
2751;DHT22;1383;48.362;10.908;2022-10-16T05:42:55;13.60;91.60
2751;DHT22;1383;48.362;10.908;2022-10-16T05:45:21;13.60;91.70
2751;DHT22;1383;48.362;10.908;2022-10-16T05:47:48;13.60;91.60
2751;DHT22;1383;48.362;10.908;2022-10-16T05:50:15;13.60;91.70
2751;DHT22;1383;48.362;10.908;2022-10-16T05:52:42;13.60;92.10
2751;DHT22;1383;48.362;10.908;2022-10-16T05:55:08;13.70;91.90
2751;DHT22;1383;48.362;10.908;2022-10-16T05:57:35;13.70;91.70
2751;DHT22;1383;48.362;10.908;2022-10-16T06:00:03;13.70;91.60
2751;DHT22;1383;48.362;10.908;2022-10-16T06:02:30;13.70;91.60
2751;DHT22;1383;48.362;10.908;2022-10-16T06:04:57;13.80;91.60
2751;DHT22;1383;48.362;10.908;2022-10-16T06:07:23;13.70;91.50
2751;DHT22;1383;48.362;10.908;2022-10-16T06:09:52;13.80;91.50
2751;DHT22;1383;48.362;10.908;2022-10-16T06:12:19;13.80;91.10
2751;DHT22;1383;48.362;10.908;2022-10-16T06:14:46;13.80;90.90
2751;DHT22;1383;48.362;10.908;2022-10-16T06:17:14;13.90;90.80
2751;DHT22;1383;48.362;10.908;2022-10-16T06:19:41;14.00;90.90
2751;DHT22;1383;48.362;10.908;2022-10-16T06:22:08;14.10;90.70
2751;DHT22;1383;48.362;10.908;2022-10-16T06:24:35;14.10;90.00
2751;DHT22;1383;48.362;10.908;2022-10-16T06:27:03;14.10;89.10
2751;DHT22;1383;48.362;10.908;2022-10-16T06:29:30;14.10;89.30
2751;DHT22;1383;48.362;10.908;2022-10-16T06:31:57;14.20;89.30
2751;DHT22;1383;48.362;10.908;2022-10-16T06:34:23;14.40;89.10
2751;DHT22;1383;48.362;10.908;2022-10-16T06:36:50;14.50;88.90
2751;DHT22;1383;48.362;10.908;2022-10-16T06:39:17;14.60;88.10
2751;DHT22;1383;48.362;10.908;2022-10-16T06:41:44;14.70;87.20
2751;DHT22;1383;48.362;10.908;2022-10-16T06:44:10;14.80;85.80
2751;DHT22;1383;48.362;10.908;2022-10-16T06:46:37;14.90;84.30
2751;DHT22;1383;48.362;10.908;2022-10-16T06:49:04;15.00;83.20
2751;DHT22;1383;48.362;10.908;2022-10-16T06:51:31;15.00;81.30
2751;DHT22;1383;48.362;10.908;2022-10-16T06:54:04;15.10;80.10
2751;DHT22;1383;48.362;10.908;2022-10-16T06:56:32;15.20;79.00
2751;DHT22;1383;48.362;10.908;2022-10-16T06:58:59;15.30;77.70
2751;DHT22;1383;48.362;10.908;2022-10-16T07:01:26;15.40;78.20
2751;DHT22;1383;48.362;10.908;2022-10-16T07:03:53;15.70;76.70
2751;DHT22;1383;48.362;10.908;2022-10-16T07:06:22;15.80;75.20
2751;DHT22;1383;48.362;10.908;2022-10-16T07:08:49;15.90;73.90
2751;DHT22;1383;48.362;10.908;2022-10-16T07:11:18;16.00;73.70
2751;DHT22;1383;48.362;10.908;2022-10-16T07:13:46;16.20;73.10
2751;DHT22;1383;48.362;10.908;2022-10-16T07:16:28;16.50;72.30
2751;DHT22;1383;48.362;10.908;2022-10-16T07:18:59;16.90;69.20
2751;DHT22;1383;48.362;10.908;2022-10-16T07:21:34;17.40;67.80
2751;DHT22;1383;48.362;10.908;2022-10-16T07:24:06;17.90;65.70
2751;DHT22;1383;48.362;10.908;2022-10-16T07:26:35;18.30;63.10
2751;DHT22;1383;48.362;10.908;2022-10-16T07:29:03;18.60;60.10
2751;DHT22;1383;48.362;10.908;2022-10-16T07:31:30;18.90;58.00
2751;DHT22;1383;48.362;10.908;2022-10-16T07:33:59;19.10;56.40
2751;DHT22;1383;48.362;10.908;2022-10-16T07:36:26;19.30;56.00
2751;DHT22;1383;48.362;10.908;2022-10-16T07:38:53;19.50;55.50
2751;DHT22;1383;48.362;10.908;2022-10-16T07:41:25;19.90;54.80
2751;DHT22;1383;48.362;10.908;2022-10-16T07:43:53;20.20;53.30
2751;DHT22;1383;48.362;10.908;2022-10-16T07:46:22;20.20;52.30
2751;DHT22;1383;48.362;10.908;2022-10-16T07:48:49;20.50;52.30
2751;DHT22;1383;48.362;10.908;2022-10-16T07:51:18;20.60;51.00
2751;DHT22;1383;48.362;10.908;2022-10-16T07:53:45;20.70;51.60
2751;DHT22;1383;48.362;10.908;2022-10-16T07:56:13;21.00;51.10
2751;DHT22;1383;48.362;10.908;2022-10-16T07:58:40;21.40;50.40
2751;DHT22;1383;48.362;10.908;2022-10-16T08:01:11;21.70;49.50
2751;DHT22;1383;48.362;10.908;2022-10-16T08:03:50;21.90;48.30
2751;DHT22;1383;48.362;10.908;2022-10-16T08:06:19;22.00;47.20
2751;DHT22;1383;48.362;10.908;2022-10-16T08:08:53;22.30;48.00
2751;DHT22;1383;48.362;10.908;2022-10-16T08:11:20;22.50;45.80
2751;DHT22;1383;48.362;10.908;2022-10-16T08:13:47;22.80;45.70
2751;DHT22;1383;48.362;10.908;2022-10-16T08:16:13;22.80;44.60
2751;DHT22;1383;48.362;10.908;2022-10-16T08:18:40;22.80;44.40
2751;DHT22;1383;48.362;10.908;2022-10-16T08:21:12;22.80;44.20
2751;DHT22;1383;48.362;10.908;2022-10-16T08:23:47;22.70;44.30
2751;DHT22;1383;48.362;10.908;2022-10-16T08:26:22;22.60;44.80
2751;DHT22;1383;48.362;10.908;2022-10-16T08:28:50;22.30;44.90
2751;DHT22;1383;48.362;10.908;2022-10-16T08:31:17;22.30;45.70
2751;DHT22;1383;48.362;10.908;2022-10-16T08:33:45;22.30;45.60
2751;DHT22;1383;48.362;10.908;2022-10-16T08:36:14;22.20;45.80
2751;DHT22;1383;48.362;10.908;2022-10-16T08:38:41;22.30;45.90
2751;DHT22;1383;48.362;10.908;2022-10-16T08:41:30;22.40;46.00
2751;DHT22;1383;48.362;10.908;2022-10-16T08:48:59;22.40;45.10
2751;DHT22;1383;48.362;10.908;2022-10-16T08:51:35;22.50;45.10
2751;DHT22;1383;48.362;10.908;2022-10-16T08:54:30;22.60;44.40
2751;DHT22;1383;48.362;10.908;2022-10-16T08:57:09;22.50;44.30
2751;DHT22;1383;48.362;10.908;2022-10-16T08:59:36;22.60;44.90
2751;DHT22;1383;48.362;10.908;2022-10-16T09:02:24;22.70;44.90
2751;DHT22;1383;48.362;10.908;2022-10-16T09:10:56;22.80;45.10
2751;DHT22;1383;48.362;10.908;2022-10-16T09:13:28;22.80;44.60
2751;DHT22;1383;48.362;10.908;2022-10-16T09:16:13;22.80;44.60
2751;DHT22;1383;48.362;10.908;2022-10-16T09:19:31;23.00;42.80
2751;DHT22;1383;48.362;10.908;2022-10-16T09:21:43;23.10;42.20
2751;DHT22;1383;48.362;10.908;2022-10-16T09:24:18;23.20;41.30
2751;DHT22;1383;48.362;10.908;2022-10-16T09:26:46;23.20;41.20
2751;DHT22;1383;48.362;10.908;2022-10-16T09:29:14;23.30;41.80
2751;DHT22;1383;48.362;10.908;2022-10-16T09:31:42;23.50;41.30
2751;DHT22;1383;48.362;10.908;2022-10-16T09:34:21;23.60;40.80
2751;DHT22;1383;48.362;10.908;2022-10-16T09:36:49;23.80;41.10
2751;DHT22;1383;48.362;10.908;2022-10-16T09:39:17;24.00;39.30
2751;DHT22;1383;48.362;10.908;2022-10-16T09:41:47;24.20;39.40
2751;DHT22;1383;48.362;10.908;2022-10-16T09:44:28;24.30;37.50
2751;DHT22;1383;48.362;10.908;2022-10-16T09:47:13;24.30;37.90
2751;DHT22;1383;48.362;10.908;2022-10-16T09:50:00;24.20;38.10
2751;DHT22;1383;48.362;10.908;2022-10-16T09:52:29;24.30;38.30
2751;DHT22;1383;48.362;10.908;2022-10-16T09:55:00;24.30;38.90
2751;DHT22;1383;48.362;10.908;2022-10-16T09:57:28;24.30;38.70
2751;DHT22;1383;48.362;10.908;2022-10-16T09:59:57;24.40;38.80
2751;DHT22;1383;48.362;10.908;2022-10-16T10:02:35;24.40;39.00
2751;DHT22;1383;48.362;10.908;2022-10-16T10:05:04;24.50;38.90
2751;DHT22;1383;48.362;10.908;2022-10-16T10:07:37;24.60;38.10
2751;DHT22;1383;48.362;10.908;2022-10-16T10:10:20;24.60;38.80
2751;DHT22;1383;48.362;10.908;2022-10-16T10:12:47;24.60;38.50
2751;DHT22;1383;48.362;10.908;2022-10-16T10:15:15;24.80;38.10
2751;DHT22;1383;48.362;10.908;2022-10-16T10:17:56;24.70;38.30
2751;DHT22;1383;48.362;10.908;2022-10-16T10:22:54;24.60;39.00
2751;DHT22;1383;48.362;10.908;2022-10-16T10:28:37;24.80;38.30
2751;DHT22;1383;48.362;10.908;2022-10-16T10:31:20;24.80;38.30
2751;DHT22;1383;48.362;10.908;2022-10-16T10:33:55;24.70;39.20
2751;DHT22;1383;48.362;10.908;2022-10-16T10:36:37;24.60;39.10
2751;DHT22;1383;48.362;10.908;2022-10-16T10:39:15;24.50;39.80
2751;DHT22;1383;48.362;10.908;2022-10-16T10:50:38;24.70;39.50
2751;DHT22;1383;48.362;10.908;2022-10-16T10:53:09;24.60;40.00
2751;DHT22;1383;48.362;10.908;2022-10-16T10:55:52;24.40;40.50
2751;DHT22;1383;48.362;10.908;2022-10-16T11:06:36;24.10;41.80
2751;DHT22;1383;48.362;10.908;2022-10-16T11:09:18;23.90;41.60
2751;DHT22;1383;48.362;10.908;2022-10-16T11:14:27;23.90;41.90
2751;DHT22;1383;48.362;10.908;2022-10-16T11:17:11;23.70;41.80
2751;DHT22;1383;48.362;10.908;2022-10-16T11:19:54;23.60;42.30
2751;DHT22;1383;48.362;10.908;2022-10-16T11:22:40;23.60;42.20
2751;DHT22;1383;48.362;10.908;2022-10-16T11:25:22;23.70;42.00
2751;DHT22;1383;48.362;10.908;2022-10-16T11:30:51;23.80;41.60
2751;DHT22;1383;48.362;10.908;2022-10-16T11:33:44;23.90;40.20
2751;DHT22;1383;48.362;10.908;2022-10-16T11:36:42;24.00;38.50
2751;DHT22;1383;48.362;10.908;2022-10-16T11:39:21;24.00;37.00
2751;DHT22;1383;48.362;10.908;2022-10-16T11:44:55;24.10;35.70
2751;DHT22;1383;48.362;10.908;2022-10-16T11:47:34;24.10;35.40
2751;DHT22;1383;48.362;10.908;2022-10-16T11:50:33;24.10;34.90
2751;DHT22;1383;48.362;10.908;2022-10-16T11:53:14;24.20;34.70
2751;DHT22;1383;48.362;10.908;2022-10-16T11:55:44;24.20;34.50
2751;DHT22;1383;48.362;10.908;2022-10-16T12:08:59;24.60;33.80
2751;DHT22;1383;48.362;10.908;2022-10-16T12:16:50;24.90;32.50
2751;DHT22;1383;48.362;10.908;2022-10-16T12:19:18;24.90;33.20
2751;DHT22;1383;48.362;10.908;2022-10-16T12:21:45;25.00;34.20
2751;DHT22;1383;48.362;10.908;2022-10-16T12:24:33;25.00;33.70
2751;DHT22;1383;48.362;10.908;2022-10-16T12:27:01;24.90;33.70
2751;DHT22;1383;48.362;10.908;2022-10-16T12:29:38;24.80;32.00
2751;DHT22;1383;48.362;10.908;2022-10-16T12:32:31;24.70;32.10
2751;DHT22;1383;48.362;10.908;2022-10-16T12:35:29;24.50;30.80
2751;DHT22;1383;48.362;10.908;2022-10-16T12:38:17;24.30;30.30
2751;DHT22;1383;48.362;10.908;2022-10-16T12:40:56;24.20;30.80
2751;DHT22;1383;48.362;10.908;2022-10-16T12:43:27;24.10;31.50
2751;DHT22;1383;48.362;10.908;2022-10-16T12:48:41;24.00;31.00
2751;DHT22;1383;48.362;10.908;2022-10-16T12:54:03;23.90;31.20
2751;DHT22;1383;48.362;10.908;2022-10-16T13:09:02;23.50;31.70
2751;DHT22;1383;48.362;10.908;2022-10-16T13:20:15;23.50;31.70
2751;DHT22;1383;48.362;10.908;2022-10-16T13:28:08;23.50;31.70
2751;DHT22;1383;48.362;10.908;2022-10-16T13:30:43;23.50;31.20
2751;DHT22;1383;48.362;10.908;2022-10-16T13:35:58;23.40;30.00
2751;DHT22;1383;48.362;10.908;2022-10-16T13:38:30;23.40;30.00
2751;DHT22;1383;48.362;10.908;2022-10-16T13:43:40;23.40;31.10
2751;DHT22;1383;48.362;10.908;2022-10-16T13:46:20;23.40;30.80
2751;DHT22;1383;48.362;10.908;2022-10-16T13:49:01;23.40;31.00
2751;DHT22;1383;48.362;10.908;2022-10-16T13:51:29;23.40;31.60
2751;DHT22;1383;48.362;10.908;2022-10-16T13:53:57;23.40;31.40
2751;DHT22;1383;48.362;10.908;2022-10-16T13:56:32;23.40;30.90
2751;DHT22;1383;48.362;10.908;2022-10-16T13:59:23;23.50;31.70
2751;DHT22;1383;48.362;10.908;2022-10-16T14:01:55;23.40;30.00
2751;DHT22;1383;48.362;10.908;2022-10-16T14:04:23;23.40;30.10
2751;DHT22;1383;48.362;10.908;2022-10-16T14:06:51;23.40;29.80
2751;DHT22;1383;48.362;10.908;2022-10-16T14:11:53;23.20;30.00
2751;DHT22;1383;48.362;10.908;2022-10-16T14:14:21;23.10;30.10
2751;DHT22;1383;48.362;10.908;2022-10-16T14:16:48;23.10;30.50
2751;DHT22;1383;48.362;10.908;2022-10-16T14:19:22;23.10;31.20
2751;DHT22;1383;48.362;10.908;2022-10-16T14:21:51;23.10;30.50
2751;DHT22;1383;48.362;10.908;2022-10-16T14:26:58;23.20;31.50
2751;DHT22;1383;48.362;10.908;2022-10-16T14:29:27;23.20;32.00
2751;DHT22;1383;48.362;10.908;2022-10-16T14:37:09;23.20;32.70
2751;DHT22;1383;48.362;10.908;2022-10-16T14:39:39;23.20;33.70
2751;DHT22;1383;48.362;10.908;2022-10-16T14:42:16;23.20;33.20
2751;DHT22;1383;48.362;10.908;2022-10-16T14:44:46;23.20;32.50
2751;DHT22;1383;48.362;10.908;2022-10-16T14:47:15;23.20;32.70
2751;DHT22;1383;48.362;10.908;2022-10-16T14:49:43;23.10;32.00
2751;DHT22;1383;48.362;10.908;2022-10-16T14:52:11;23.10;32.70
2751;DHT22;1383;48.362;10.908;2022-10-16T14:54:38;23.10;33.40
2751;DHT22;1383;48.362;10.908;2022-10-16T14:57:05;23.00;34.10
2751;DHT22;1383;48.362;10.908;2022-10-16T14:59:41;22.90;34.40
2751;DHT22;1383;48.362;10.908;2022-10-16T15:02:31;22.80;35.70
2751;DHT22;1383;48.362;10.908;2022-10-16T15:05:10;22.70;35.60
2751;DHT22;1383;48.362;10.908;2022-10-16T15:07:37;22.70;35.80
2751;DHT22;1383;48.362;10.908;2022-10-16T15:10:04;22.70;35.70
2751;DHT22;1383;48.362;10.908;2022-10-16T15:12:31;22.70;35.80
2751;DHT22;1383;48.362;10.908;2022-10-16T15:14:58;22.70;36.20
2751;DHT22;1383;48.362;10.908;2022-10-16T15:17:24;22.50;36.50
2751;DHT22;1383;48.362;10.908;2022-10-16T15:19:52;22.40;36.90
2751;DHT22;1383;48.362;10.908;2022-10-16T15:22:18;22.40;36.70
2751;DHT22;1383;48.362;10.908;2022-10-16T15:24:45;22.30;37.00
2751;DHT22;1383;48.362;10.908;2022-10-16T15:27:12;22.30;36.80
2751;DHT22;1383;48.362;10.908;2022-10-16T15:29:39;22.20;36.90
2751;DHT22;1383;48.362;10.908;2022-10-16T15:32:05;22.20;37.40
2751;DHT22;1383;48.362;10.908;2022-10-16T15:34:32;22.20;37.50
2751;DHT22;1383;48.362;10.908;2022-10-16T15:37:03;22.20;38.00
2751;DHT22;1383;48.362;10.908;2022-10-16T15:39:29;22.20;38.10
2751;DHT22;1383;48.362;10.908;2022-10-16T15:41:56;22.20;38.20
2751;DHT22;1383;48.362;10.908;2022-10-16T15:44:23;22.10;38.70
2751;DHT22;1383;48.362;10.908;2022-10-16T15:46:54;22.10;38.80
2751;DHT22;1383;48.362;10.908;2022-10-16T15:49:21;22.10;39.00
2751;DHT22;1383;48.362;10.908;2022-10-16T15:51:48;22.00;39.30
2751;DHT22;1383;48.362;10.908;2022-10-16T15:54:14;22.00;39.30
2751;DHT22;1383;48.362;10.908;2022-10-16T15:56:41;22.00;40.00
2751;DHT22;1383;48.362;10.908;2022-10-16T15:59:08;22.00;40.00
2751;DHT22;1383;48.362;10.908;2022-10-16T16:01:35;21.90;40.30
2751;DHT22;1383;48.362;10.908;2022-10-16T16:04:02;21.90;40.90
2751;DHT22;1383;48.362;10.908;2022-10-16T16:06:45;21.80;40.90
2751;DHT22;1383;48.362;10.908;2022-10-16T16:09:13;21.80;41.50
2751;DHT22;1383;48.362;10.908;2022-10-16T16:11:40;21.70;42.00
2751;DHT22;1383;48.362;10.908;2022-10-16T16:14:11;21.70;42.30
2751;DHT22;1383;48.362;10.908;2022-10-16T16:16:39;21.60;43.10
2751;DHT22;1383;48.362;10.908;2022-10-16T16:19:06;21.50;43.60
2751;DHT22;1383;48.362;10.908;2022-10-16T16:21:37;21.40;44.10
2751;DHT22;1383;48.362;10.908;2022-10-16T16:24:04;21.30;44.60
2751;DHT22;1383;48.362;10.908;2022-10-16T16:26:35;21.20;45.20
2751;DHT22;1383;48.362;10.908;2022-10-16T16:29:05;21.10;45.50
2751;DHT22;1383;48.362;10.908;2022-10-16T16:31:32;21.00;45.70
2751;DHT22;1383;48.362;10.908;2022-10-16T16:34:00;21.00;46.20
2751;DHT22;1383;48.362;10.908;2022-10-16T16:36:27;20.90;46.80
2751;DHT22;1383;48.362;10.908;2022-10-16T16:38:54;20.90;47.00
2751;DHT22;1383;48.362;10.908;2022-10-16T16:41:23;20.80;46.90
2751;DHT22;1383;48.362;10.908;2022-10-16T16:43:52;20.80;47.60
2751;DHT22;1383;48.362;10.908;2022-10-16T16:46:19;20.70;48.20
2751;DHT22;1383;48.362;10.908;2022-10-16T16:48:46;20.70;48.80
2751;DHT22;1383;48.362;10.908;2022-10-16T16:51:15;20.60;48.60
2751;DHT22;1383;48.362;10.908;2022-10-16T16:53:43;20.60;48.70
2751;DHT22;1383;48.362;10.908;2022-10-16T16:56:10;20.60;48.60
2751;DHT22;1383;48.362;10.908;2022-10-16T16:58:37;20.60;49.20
2751;DHT22;1383;48.362;10.908;2022-10-16T17:01:04;20.60;49.30
2751;DHT22;1383;48.362;10.908;2022-10-16T17:03:46;20.60;49.20
2751;DHT22;1383;48.362;10.908;2022-10-16T17:06:14;20.40;49.30
2751;DHT22;1383;48.362;10.908;2022-10-16T17:08:41;20.40;49.50
2751;DHT22;1383;48.362;10.908;2022-10-16T17:11:27;20.40;49.90
2751;DHT22;1383;48.362;10.908;2022-10-16T17:13:56;20.30;50.00
2751;DHT22;1383;48.362;10.908;2022-10-16T17:16:26;20.20;50.50
2751;DHT22;1383;48.362;10.908;2022-10-16T17:18:53;20.10;51.00
2751;DHT22;1383;48.362;10.908;2022-10-16T17:21:20;20.10;51.10
2751;DHT22;1383;48.362;10.908;2022-10-16T17:23:50;20.20;51.40
2751;DHT22;1383;48.362;10.908;2022-10-16T17:26:17;20.10;51.50
2751;DHT22;1383;48.362;10.908;2022-10-16T17:28:44;20.10;52.10
2751;DHT22;1383;48.362;10.908;2022-10-16T17:31:16;20.00;53.30
2751;DHT22;1383;48.362;10.908;2022-10-16T17:33:44;20.00;54.10
2751;DHT22;1383;48.362;10.908;2022-10-16T17:36:12;19.90;54.70
2751;DHT22;1383;48.362;10.908;2022-10-16T17:38:41;19.80;55.80
2751;DHT22;1383;48.362;10.908;2022-10-16T17:41:17;19.80;55.50
2751;DHT22;1383;48.362;10.908;2022-10-16T17:43:45;19.70;56.00
2751;DHT22;1383;48.362;10.908;2022-10-16T17:46:14;19.70;56.50
2751;DHT22;1383;48.362;10.908;2022-10-16T17:48:44;19.60;56.80
2751;DHT22;1383;48.362;10.908;2022-10-16T17:51:13;19.60;57.50
2751;DHT22;1383;48.362;10.908;2022-10-16T17:53:41;19.50;57.90
2751;DHT22;1383;48.362;10.908;2022-10-16T17:56:12;19.40;58.70
2751;DHT22;1383;48.362;10.908;2022-10-16T17:58:40;19.20;60.40
2751;DHT22;1383;48.362;10.908;2022-10-16T18:01:12;19.10;60.40
2751;DHT22;1383;48.362;10.908;2022-10-16T18:03:39;19.00;61.10
2751;DHT22;1383;48.362;10.908;2022-10-16T18:06:06;18.90;61.50
2751;DHT22;1383;48.362;10.908;2022-10-16T18:08:33;18.70;62.70